WetterOnline ( https://www.wetteronline.de )

Wetter aktuell Berlin

Aktuelles Wetter: Berlin-Tegel (37m)

6-stündlich | Neueste Meldungen
Ortszeit Temperatur Wetter
Fr, 22.01. 7:00 10.2° C leicht bewölkt
Fr, 22.01. 1:00 7.8° C leichter Regen
Do, 21.01. 19:00 9.7° C wolkig
Do, 21.01. 13:00 12.7° C bewölkt
Do, 21.01. 7:00 7.3° C wolkig
Do, 21.01. 1:00 6.8° C leicht bewölkt
Mi, 20.01. 19:00 7.1° C bewölkt
Mi, 20.01. 13:00 7.8° C leichter Regen
Ortszeit Temperatur Wetter
Fr, 22.01. 7:00 10.2° C leicht bewölkt
Fr, 22.01. 6:50 10.2° C -
Fr, 22.01. 6:40 10.3° C -
Fr, 22.01. 6:30 10.1° C wolkenlos
Fr, 22.01. 6:20 10.1° C -
Fr, 22.01. 6:10 10.5° C -
Fr, 22.01. 6:00 10.4° C fast wolkenlos
Fr, 22.01. 5:30 10.5° C leicht bewölkt
Fr, 22.01. 5:00 10.9° C leicht bewölkt
Fr, 22.01. 4:30 11.0° C leicht bewölkt
Fr, 22.01. 4:00 10.7° C wolkig
Ortszeit Relative Feuchte Sichtweite
Fr, 22.01. 7:00 60% 50 km
Fr, 22.01. 1:00 85% 17 km
Do, 21.01. 19:00 63% 60 km
Do, 21.01. 13:00 45% 50 km
Do, 21.01. 7:00 55% 50 km
Do, 21.01. 1:00 62% 50 km
Mi, 20.01. 19:00 64% 60 km
Mi, 20.01. 13:00 63% 60 km
Ortszeit Relative Feuchte Sichtweite
Fr, 22.01. 7:00 60% 50 km
Fr, 22.01. 6:50 60% -
Fr, 22.01. 6:40 61% -
Fr, 22.01. 6:30 61% 70 km
Fr, 22.01. 6:20 61% -
Fr, 22.01. 6:10 60% -
Fr, 22.01. 6:00 61% 70 km
Fr, 22.01. 5:30 61% 70 km
Fr, 22.01. 5:00 61% 70 km
Fr, 22.01. 4:30 62% 65 km
Fr, 22.01. 4:00 66% 60 km
Ortszeit Niederschlagsmenge Niederschlagsart
Fr, 22.01. 7:00 0.6 l/m2 in 12 Std. Regen
Fr, 22.01. 1:00 0.4 l/m2 in 6 Std. Regen
Do, 21.01. 19:00 0.0 l/m2 in 12 Std. -
Do, 21.01. 13:00 0.0 l/m2 in 6 Std. -
Do, 21.01. 7:00 0.1 l/m2 in 12 Std. -
Do, 21.01. 1:00 0.1 l/m2 in 6 Std. Regen
Mi, 20.01. 19:00 0.1 l/m2 in 12 Std. Regen
Mi, 20.01. 13:00 0.1 l/m2 in 6 Std. Regen
Ortszeit Niederschlagsmenge Niederschlagsart
Fr, 22.01. 7:00 0.0 l/m2 in 1 Std. Regen
Fr, 22.01. 6:50 keine Meldung -
Fr, 22.01. 6:40 keine Meldung -
Fr, 22.01. 6:30 0.0 l/m2 in 1 Std. -
Fr, 22.01. 6:20 keine Meldung -
Fr, 22.01. 6:10 keine Meldung -
Fr, 22.01. 6:00 0.0 l/m2 in 1 Std. -
Fr, 22.01. 5:30 0.0 l/m2 in 1 Std. -
Fr, 22.01. 5:00 0.0 l/m2 in 1 Std. -
Fr, 22.01. 4:30 0.0 l/m2 in 1 Std. -
Fr, 22.01. 4:00 0.0 l/m2 in 1 Std. Regen
Ortszeit Stärke Spitze Richtung
km/h Bft. km/h Grad Sektor
Fr, 22.01. 7:00 29 5 54 190° S
Fr, 22.01. 1:00 19 3 44 160° S
Do, 21.01. 19:00 25 4 54 230° SW
Do, 21.01. 13:00 30 5 54 220° SW
Do, 21.01. 7:00 22 4 37 170° S
Do, 21.01. 1:00 22 4 37 190° S
Mi, 20.01. 19:00 14 3 43 190° S
Mi, 20.01. 13:00 24 4 37 210° SW
Ortszeit Stärke Spitze Richtung
km/h Bft. km/h Grad Sektor
Fr, 22.01. 7:00 29 5 50 190° S
Fr, 22.01. 6:50 29 5 - 190° S
Fr, 22.01. 6:40 29 5 - 190° S
Fr, 22.01. 6:30 28 4 44 190° S
Fr, 22.01. 6:20 28 4 - 190° S
Fr, 22.01. 6:10 26 4 - 190° S
Fr, 22.01. 6:00 30 5 50 190° S
Fr, 22.01. 5:30 32 5 50 180° S
Fr, 22.01. 5:00 33 5 56 190° S
Fr, 22.01. 4:30 31 5 56 200° S
Fr, 22.01. 4:00 33 5 54 200° S
Ortszeit Untergrenze Bedeckung Gattung
total tief tief mittel hoch
Fr, 22.01. 7:00 5100 m 3/8 1/8 - Ac Ci
Fr, 22.01. 1:00 1500 m 8/8 7/8 Sc - -
Do, 21.01. 19:00 5400 m 7/8 7/8 - As -
Do, 21.01. 13:00 1440 m 7/8 7/8 Sc - -
Do, 21.01. 7:00 3000 m 7/8 7/8 - As -
Do, 21.01. 1:00 4200 m 5/8 5/8 - Ac -
Mi, 20.01. 19:00 2100 m 7/8 7/8 Sc - -
Mi, 20.01. 13:00 1140 m 8/8 7/8 Sc - -
Ortszeit Bedeckungsgrad in Achtel und Wolkenuntergrenze
Fr, 22.01. 7:00 1(5100m) 3(6000m)
Fr, 22.01. 6:50 -
Fr, 22.01. 6:40 -
Fr, 22.01. 6:30 keine Wolken
Fr, 22.01. 6:20 -
Fr, 22.01. 6:10 -
Fr, 22.01. 6:00 1(5100m)
Fr, 22.01. 5:30 5(4800m)
Fr, 22.01. 5:00 2(7500m)
Fr, 22.01. 4:30 4(3000m)
Fr, 22.01. 4:00 4(3000m) 7(4200m)
Ortszeit Luftdruck NN (hPa) Tendenz (hPa in 3 Std.)
Fr, 22.01. 7:00 988 - 1,9
Fr, 22.01. 1:00 993 - 3,0
Do, 21.01. 19:00 997 + 0,8
Do, 21.01. 13:00 996 + 0,1
Do, 21.01. 7:00 996 - 1,7
Do, 21.01. 1:00 1000 - 1,4
Mi, 20.01. 19:00 1002 - 0,1
Mi, 20.01. 13:00 1003 - 1,1
Ortszeit Luftdruck NN (hPa) Tendenz (hPa in 3 Std.)
Fr, 22.01. 7:00 988 - 1,9
Fr, 22.01. 6:50 988 keine Meldung
Fr, 22.01. 6:40 988 keine Meldung
Fr, 22.01. 6:30 988 - 2,2
Fr, 22.01. 6:20 988 keine Meldung
Fr, 22.01. 6:10 989 keine Meldung
Fr, 22.01. 6:00 989 - 2,0
Fr, 22.01. 5:30 989 - 2,0
Fr, 22.01. 5:00 990 - 1,7
Fr, 22.01. 4:30 990 - 2,3
Fr, 22.01. 4:00 990 - 2,5
Ortszeit Schneehöhe (cm)
Fr, 22.01. 7:00 0
Fr, 22.01. 1:00 0
Do, 21.01. 19:00 0
Do, 21.01. 13:00 0
Do, 21.01. 7:00 0
Do, 21.01. 1:00 0
Mi, 20.01. 19:00 0
Mi, 20.01. 13:00 0
Ortszeit Schneehöhe (cm)
Fr, 22.01. 7:00 0
Fr, 22.01. 6:50 -
Fr, 22.01. 6:40 -
Fr, 22.01. 6:30 -
Fr, 22.01. 6:20 -
Fr, 22.01. 6:10 -
Fr, 22.01. 6:00 -
Fr, 22.01. 5:30 -
Fr, 22.01. 5:00 -
Fr, 22.01. 4:30 -
Fr, 22.01. 4:00 -
Link zu dieser Seite / Seite empfehlen

Das Wetter in ...